sensor_id;sensor_type;location;lat;lon;timestamp;temperature;humidity
36352;DHT22;22382;44.768;17.206;2023-07-24T00:01:22;20.90;99.90
36352;DHT22;22382;44.768;17.206;2023-07-24T00:03:49;20.90;99.90
36352;DHT22;22382;44.768;17.206;2023-07-24T00:06:16;20.90;99.90
36352;DHT22;22382;44.768;17.206;2023-07-24T00:08:43;20.90;99.90
36352;DHT22;22382;44.768;17.206;2023-07-24T00:11:10;20.90;99.90
36352;DHT22;22382;44.768;17.206;2023-07-24T00:13:37;20.80;99.90
36352;DHT22;22382;44.768;17.206;2023-07-24T00:16:08;20.80;99.90
36352;DHT22;22382;44.768;17.206;2023-07-24T00:18:35;20.70;99.90
36352;DHT22;22382;44.768;17.206;2023-07-24T00:21:02;20.70;99.90
36352;DHT22;22382;44.768;17.206;2023-07-24T00:23:29;20.70;99.90
36352;DHT22;22382;44.768;17.206;2023-07-24T00:25:56;20.60;99.90
36352;DHT22;22382;44.768;17.206;2023-07-24T00:28:23;20.60;99.90
36352;DHT22;22382;44.768;17.206;2023-07-24T00:30:50;20.50;99.90
36352;DHT22;22382;44.768;17.206;2023-07-24T00:33:17;20.50;99.90
36352;DHT22;22382;44.768;17.206;2023-07-24T00:35:44;20.50;99.90
36352;DHT22;22382;44.768;17.206;2023-07-24T00:38:11;20.40;99.90
36352;DHT22;22382;44.768;17.206;2023-07-24T00:40:38;20.40;99.90
36352;DHT22;22382;44.768;17.206;2023-07-24T00:43:05;20.40;99.90
36352;DHT22;22382;44.768;17.206;2023-07-24T00:45:32;20.50;99.90
36352;DHT22;22382;44.768;17.206;2023-07-24T00:47:59;20.50;99.90
36352;DHT22;22382;44.768;17.206;2023-07-24T00:50:27;20.50;99.90
36352;DHT22;22382;44.768;17.206;2023-07-24T00:52:54;20.50;99.90
36352;DHT22;22382;44.768;17.206;2023-07-24T00:55:21;20.50;99.90
36352;DHT22;22382;44.768;17.206;2023-07-24T00:57:49;20.60;99.90
36352;DHT22;22382;44.768;17.206;2023-07-24T01:00:16;20.50;99.90
36352;DHT22;22382;44.768;17.206;2023-07-24T01:02:43;20.60;99.90
36352;DHT22;22382;44.768;17.206;2023-07-24T01:05:12;20.50;99.90
36352;DHT22;22382;44.768;17.206;2023-07-24T01:07:40;20.50;99.90
36352;DHT22;22382;44.768;17.206;2023-07-24T01:10:07;20.40;99.90
36352;DHT22;22382;44.768;17.206;2023-07-24T01:17:34;20.30;99.90
36352;DHT22;22382;44.768;17.206;2023-07-24T01:20:02;20.30;99.90
36352;DHT22;22382;44.768;17.206;2023-07-24T01:27:34;20.40;99.90
36352;DHT22;22382;44.768;17.206;2023-07-24T01:30:01;20.40;99.90
36352;DHT22;22382;44.768;17.206;2023-07-24T01:32:28;20.30;99.90
36352;DHT22;22382;44.768;17.206;2023-07-24T01:34:55;20.30;99.90
36352;DHT22;22382;44.768;17.206;2023-07-24T01:37:22;20.30;99.90
36352;DHT22;22382;44.768;17.206;2023-07-24T01:39:51;20.30;99.90
36352;DHT22;22382;44.768;17.206;2023-07-24T01:42:19;20.30;99.90
36352;DHT22;22382;44.768;17.206;2023-07-24T01:44:55;20.30;99.90
36352;DHT22;22382;44.768;17.206;2023-07-24T01:47:22;20.30;99.90
36352;DHT22;22382;44.768;17.206;2023-07-24T01:49:50;20.20;99.90
36352;DHT22;22382;44.768;17.206;2023-07-24T01:52:17;20.20;99.90
36352;DHT22;22382;44.768;17.206;2023-07-24T01:54:44;20.20;99.90
36352;DHT22;22382;44.768;17.206;2023-07-24T01:57:11;20.10;99.90
36352;DHT22;22382;44.768;17.206;2023-07-24T01:59:38;20.10;99.90
36352;DHT22;22382;44.768;17.206;2023-07-24T02:02:05;20.10;99.90
36352;DHT22;22382;44.768;17.206;2023-07-24T02:04:32;20.10;99.90
36352;DHT22;22382;44.768;17.206;2023-07-24T02:06:59;20.00;99.90
36352;DHT22;22382;44.768;17.206;2023-07-24T02:09:26;19.90;99.90
36352;DHT22;22382;44.768;17.206;2023-07-24T02:11:53;20.00;99.90
36352;DHT22;22382;44.768;17.206;2023-07-24T02:14:20;19.90;99.90
36352;DHT22;22382;44.768;17.206;2023-07-24T02:16:47;20.00;99.90
36352;DHT22;22382;44.768;17.206;2023-07-24T02:19:14;20.00;99.90
36352;DHT22;22382;44.768;17.206;2023-07-24T02:21:47;20.00;99.90
36352;DHT22;22382;44.768;17.206;2023-07-24T02:24:17;20.00;99.90
36352;DHT22;22382;44.768;17.206;2023-07-24T02:26:44;20.00;99.90
36352;DHT22;22382;44.768;17.206;2023-07-24T02:29:11;20.00;99.90
36352;DHT22;22382;44.768;17.206;2023-07-24T02:31:38;19.90;99.90
36352;DHT22;22382;44.768;17.206;2023-07-24T02:34:05;19.90;99.90
36352;DHT22;22382;44.768;17.206;2023-07-24T02:36:32;19.90;99.90
36352;DHT22;22382;44.768;17.206;2023-07-24T02:38:59;19.90;99.90
36352;DHT22;22382;44.768;17.206;2023-07-24T02:41:26;19.80;99.90
36352;DHT22;22382;44.768;17.206;2023-07-24T02:43:53;19.90;99.90
36352;DHT22;22382;44.768;17.206;2023-07-24T02:46:20;19.90;99.90
36352;DHT22;22382;44.768;17.206;2023-07-24T02:48:50;19.90;99.90
36352;DHT22;22382;44.768;17.206;2023-07-24T02:51:17;19.90;99.90
36352;DHT22;22382;44.768;17.206;2023-07-24T02:53:44;19.90;99.90
36352;DHT22;22382;44.768;17.206;2023-07-24T02:56:11;19.90;99.90
36352;DHT22;22382;44.768;17.206;2023-07-24T02:58:38;19.90;99.90
36352;DHT22;22382;44.768;17.206;2023-07-24T03:01:06;19.90;99.90
36352;DHT22;22382;44.768;17.206;2023-07-24T03:03:33;19.90;99.90
36352;DHT22;22382;44.768;17.206;2023-07-24T03:06:01;19.90;99.90
36352;DHT22;22382;44.768;17.206;2023-07-24T03:08:28;19.80;99.90
36352;DHT22;22382;44.768;17.206;2023-07-24T03:10:55;19.80;99.90
36352;DHT22;22382;44.768;17.206;2023-07-24T03:13:22;19.90;99.90
36352;DHT22;22382;44.768;17.206;2023-07-24T03:15:56;19.90;99.90
36352;DHT22;22382;44.768;17.206;2023-07-24T03:18:23;19.90;99.90
36352;DHT22;22382;44.768;17.206;2023-07-24T03:20:50;19.90;99.90
36352;DHT22;22382;44.768;17.206;2023-07-24T03:23:18;19.80;99.90
36352;DHT22;22382;44.768;17.206;2023-07-24T03:25:45;19.90;99.90
36352;DHT22;22382;44.768;17.206;2023-07-24T03:28:12;19.80;99.90
36352;DHT22;22382;44.768;17.206;2023-07-24T03:30:39;19.80;99.90
36352;DHT22;22382;44.768;17.206;2023-07-24T03:33:06;19.80;99.90
36352;DHT22;22382;44.768;17.206;2023-07-24T03:35:34;19.80;99.90
36352;DHT22;22382;44.768;17.206;2023-07-24T03:38:01;19.80;99.90
36352;DHT22;22382;44.768;17.206;2023-07-24T03:40:28;19.90;99.90
36352;DHT22;22382;44.768;17.206;2023-07-24T03:42:55;19.90;99.90
36352;DHT22;22382;44.768;17.206;2023-07-24T03:45:22;19.90;99.90
36352;DHT22;22382;44.768;17.206;2023-07-24T03:47:49;19.90;99.90
36352;DHT22;22382;44.768;17.206;2023-07-24T03:50:16;20.00;99.90
36352;DHT22;22382;44.768;17.206;2023-07-24T03:52:43;20.00;99.90
36352;DHT22;22382;44.768;17.206;2023-07-24T03:55:10;20.10;99.90
36352;DHT22;22382;44.768;17.206;2023-07-24T03:57:38;20.20;99.90
36352;DHT22;22382;44.768;17.206;2023-07-24T04:00:05;20.20;99.90
36352;DHT22;22382;44.768;17.206;2023-07-24T04:02:32;20.30;99.90
36352;DHT22;22382;44.768;17.206;2023-07-24T04:04:59;20.40;99.90
36352;DHT22;22382;44.768;17.206;2023-07-24T04:07:26;20.60;99.90
36352;DHT22;22382;44.768;17.206;2023-07-24T04:09:53;20.70;99.90
36352;DHT22;22382;44.768;17.206;2023-07-24T04:12:20;20.90;99.90
36352;DHT22;22382;44.768;17.206;2023-07-24T04:14:47;21.10;99.90
36352;DHT22;22382;44.768;17.206;2023-07-24T04:17:15;21.20;99.90
36352;DHT22;22382;44.768;17.206;2023-07-24T04:19:42;21.40;99.90
36352;DHT22;22382;44.768;17.206;2023-07-24T04:22:09;21.60;99.90
36352;DHT22;22382;44.768;17.206;2023-07-24T04:24:36;21.70;99.90
36352;DHT22;22382;44.768;17.206;2023-07-24T04:27:04;21.90;99.90
36352;DHT22;22382;44.768;17.206;2023-07-24T04:29:31;22.10;99.90
36352;DHT22;22382;44.768;17.206;2023-07-24T04:31:58;22.30;99.90
36352;DHT22;22382;44.768;17.206;2023-07-24T04:34:25;22.40;99.90
36352;DHT22;22382;44.768;17.206;2023-07-24T04:36:52;22.50;99.90
36352;DHT22;22382;44.768;17.206;2023-07-24T04:39:19;22.80;99.90
36352;DHT22;22382;44.768;17.206;2023-07-24T04:41:46;22.90;99.90
36352;DHT22;22382;44.768;17.206;2023-07-24T04:44:13;23.10;99.90
36352;DHT22;22382;44.768;17.206;2023-07-24T04:46:40;23.30;99.90
36352;DHT22;22382;44.768;17.206;2023-07-24T04:49:07;23.40;99.90
36352;DHT22;22382;44.768;17.206;2023-07-24T04:51:34;23.40;99.90
36352;DHT22;22382;44.768;17.206;2023-07-24T04:54:02;23.00;99.90
36352;DHT22;22382;44.768;17.206;2023-07-24T04:56:29;23.20;99.90
36352;DHT22;22382;44.768;17.206;2023-07-24T04:58:57;23.50;99.90
36352;DHT22;22382;44.768;17.206;2023-07-24T05:01:24;23.50;99.90
36352;DHT22;22382;44.768;17.206;2023-07-24T05:03:51;23.60;99.90
36352;DHT22;22382;44.768;17.206;2023-07-24T05:06:18;24.00;99.90
36352;DHT22;22382;44.768;17.206;2023-07-24T05:08:45;24.10;99.90
36352;DHT22;22382;44.768;17.206;2023-07-24T05:11:12;24.10;99.90
36352;DHT22;22382;44.768;17.206;2023-07-24T05:13:39;24.30;99.90
36352;DHT22;22382;44.768;17.206;2023-07-24T05:16:06;24.50;99.90
36352;DHT22;22382;44.768;17.206;2023-07-24T05:18:33;24.70;99.90
36352;DHT22;22382;44.768;17.206;2023-07-24T05:21:00;24.90;99.90
36352;DHT22;22382;44.768;17.206;2023-07-24T05:23:27;25.00;99.90
36352;DHT22;22382;44.768;17.206;2023-07-24T05:25:58;25.10;99.90
36352;DHT22;22382;44.768;17.206;2023-07-24T05:28:26;25.20;99.90
36352;DHT22;22382;44.768;17.206;2023-07-24T05:30:53;25.30;99.90
36352;DHT22;22382;44.768;17.206;2023-07-24T05:33:20;25.50;99.90
36352;DHT22;22382;44.768;17.206;2023-07-24T05:35:50;25.50;99.90
36352;DHT22;22382;44.768;17.206;2023-07-24T05:38:17;25.40;99.90
36352;DHT22;22382;44.768;17.206;2023-07-24T05:40:44;25.50;99.90
36352;DHT22;22382;44.768;17.206;2023-07-24T05:43:11;25.40;99.90
36352;DHT22;22382;44.768;17.206;2023-07-24T05:45:38;25.60;99.90
36352;DHT22;22382;44.768;17.206;2023-07-24T05:48:05;25.70;99.90
36352;DHT22;22382;44.768;17.206;2023-07-24T05:50:33;25.90;99.90
36352;DHT22;22382;44.768;17.206;2023-07-24T05:53:00;26.00;99.90
36352;DHT22;22382;44.768;17.206;2023-07-24T05:55:27;26.10;99.90
36352;DHT22;22382;44.768;17.206;2023-07-24T05:57:54;26.20;99.90
36352;DHT22;22382;44.768;17.206;2023-07-24T06:00:21;26.20;99.90
36352;DHT22;22382;44.768;17.206;2023-07-24T06:02:48;26.20;99.90
36352;DHT22;22382;44.768;17.206;2023-07-24T06:05:15;26.00;99.90
36352;DHT22;22382;44.768;17.206;2023-07-24T06:07:42;26.00;99.90
36352;DHT22;22382;44.768;17.206;2023-07-24T06:10:09;26.20;99.90
36352;DHT22;22382;44.768;17.206;2023-07-24T06:12:36;26.50;99.90
36352;DHT22;22382;44.768;17.206;2023-07-24T06:15:03;26.60;99.90
36352;DHT22;22382;44.768;17.206;2023-07-24T06:17:31;26.60;99.90
36352;DHT22;22382;44.768;17.206;2023-07-24T06:19:58;26.50;99.90
36352;DHT22;22382;44.768;17.206;2023-07-24T06:22:25;26.80;99.90
36352;DHT22;22382;44.768;17.206;2023-07-24T06:24:52;26.90;99.90
36352;DHT22;22382;44.768;17.206;2023-07-24T06:27:19;27.10;99.90
36352;DHT22;22382;44.768;17.206;2023-07-24T06:29:46;27.20;99.90
36352;DHT22;22382;44.768;17.206;2023-07-24T06:32:16;27.40;99.90
36352;DHT22;22382;44.768;17.206;2023-07-24T06:34:43;27.50;99.90
36352;DHT22;22382;44.768;17.206;2023-07-24T06:37:11;27.70;99.90
36352;DHT22;22382;44.768;17.206;2023-07-24T06:39:48;27.60;99.90
36352;DHT22;22382;44.768;17.206;2023-07-24T06:42:15;27.50;99.90
36352;DHT22;22382;44.768;17.206;2023-07-24T06:44:42;27.50;99.90
36352;DHT22;22382;44.768;17.206;2023-07-24T06:47:09;27.70;99.90
36352;DHT22;22382;44.768;17.206;2023-07-24T06:49:36;27.70;99.90
36352;DHT22;22382;44.768;17.206;2023-07-24T06:52:03;27.90;99.90
36352;DHT22;22382;44.768;17.206;2023-07-24T06:54:30;28.10;99.90
36352;DHT22;22382;44.768;17.206;2023-07-24T06:56:58;28.30;99.90
36352;DHT22;22382;44.768;17.206;2023-07-24T06:59:25;28.30;99.90
36352;DHT22;22382;44.768;17.206;2023-07-24T07:01:52;28.50;99.90
36352;DHT22;22382;44.768;17.206;2023-07-24T07:04:19;28.30;99.90
36352;DHT22;22382;44.768;17.206;2023-07-24T07:06:46;28.50;99.90
36352;DHT22;22382;44.768;17.206;2023-07-24T07:09:14;28.50;99.90
36352;DHT22;22382;44.768;17.206;2023-07-24T07:11:41;28.50;99.90
36352;DHT22;22382;44.768;17.206;2023-07-24T07:14:10;28.60;99.90
36352;DHT22;22382;44.768;17.206;2023-07-24T07:16:37;28.70;99.90
36352;DHT22;22382;44.768;17.206;2023-07-24T07:19:04;28.80;99.00
36352;DHT22;22382;44.768;17.206;2023-07-24T07:21:31;29.00;98.80
36352;DHT22;22382;44.768;17.206;2023-07-24T07:23:58;29.10;98.00
36352;DHT22;22382;44.768;17.206;2023-07-24T07:26:25;29.20;98.10
36352;DHT22;22382;44.768;17.206;2023-07-24T07:28:53;29.20;98.20
36352;DHT22;22382;44.768;17.206;2023-07-24T07:31:21;29.30;97.80
36352;DHT22;22382;44.768;17.206;2023-07-24T07:33:48;29.30;97.90
36352;DHT22;22382;44.768;17.206;2023-07-24T07:36:15;29.20;98.10
36352;DHT22;22382;44.768;17.206;2023-07-24T07:38:42;29.40;96.40
36352;DHT22;22382;44.768;17.206;2023-07-24T07:41:09;29.10;97.60
36352;DHT22;22382;44.768;17.206;2023-07-24T07:43:36;29.20;98.90
36352;DHT22;22382;44.768;17.206;2023-07-24T07:46:04;29.30;98.40
36352;DHT22;22382;44.768;17.206;2023-07-24T07:48:31;29.40;98.20
36352;DHT22;22382;44.768;17.206;2023-07-24T07:50:59;29.50;97.90
36352;DHT22;22382;44.768;17.206;2023-07-24T07:53:26;29.50;96.80
36352;DHT22;22382;44.768;17.206;2023-07-24T07:55:56;29.60;97.20
36352;DHT22;22382;44.768;17.206;2023-07-24T07:58:24;29.70;96.80
36352;DHT22;22382;44.768;17.206;2023-07-24T08:00:51;30.10;95.50
36352;DHT22;22382;44.768;17.206;2023-07-24T08:03:18;30.20;95.10
36352;DHT22;22382;44.768;17.206;2023-07-24T08:05:45;30.20;93.90
36352;DHT22;22382;44.768;17.206;2023-07-24T08:08:12;30.30;93.40
36352;DHT22;22382;44.768;17.206;2023-07-24T08:10:39;30.00;93.50
36352;DHT22;22382;44.768;17.206;2023-07-24T08:13:06;29.70;93.50
36352;DHT22;22382;44.768;17.206;2023-07-24T08:15:36;29.80;92.90
36352;DHT22;22382;44.768;17.206;2023-07-24T08:18:04;30.10;91.80
36352;DHT22;22382;44.768;17.206;2023-07-24T08:20:35;29.90;91.80
36352;DHT22;22382;44.768;17.206;2023-07-24T08:23:03;30.30;92.40
36352;DHT22;22382;44.768;17.206;2023-07-24T08:25:30;30.40;93.00
36352;DHT22;22382;44.768;17.206;2023-07-24T08:27:57;30.60;93.20
36352;DHT22;22382;44.768;17.206;2023-07-24T08:30:32;30.80;93.50
36352;DHT22;22382;44.768;17.206;2023-07-24T08:33:00;30.90;92.90
36352;DHT22;22382;44.768;17.206;2023-07-24T08:35:27;30.90;92.90
36352;DHT22;22382;44.768;17.206;2023-07-24T08:37:54;30.90;92.70
36352;DHT22;22382;44.768;17.206;2023-07-24T08:40:21;31.00;92.60
36352;DHT22;22382;44.768;17.206;2023-07-24T08:42:49;30.90;92.60
36352;DHT22;22382;44.768;17.206;2023-07-24T08:45:17;31.00;93.20
36352;DHT22;22382;44.768;17.206;2023-07-24T08:47:44;30.90;91.90
36352;DHT22;22382;44.768;17.206;2023-07-24T08:50:12;31.10;91.90
36352;DHT22;22382;44.768;17.206;2023-07-24T08:52:41;31.20;91.40
36352;DHT22;22382;44.768;17.206;2023-07-24T08:55:13;31.40;91.00
36352;DHT22;22382;44.768;17.206;2023-07-24T08:57:40;31.20;91.70
36352;DHT22;22382;44.768;17.206;2023-07-24T09:00:07;31.40;91.80
36352;DHT22;22382;44.768;17.206;2023-07-24T09:02:35;31.40;90.60
36352;DHT22;22382;44.768;17.206;2023-07-24T09:05:02;31.20;91.30
36352;DHT22;22382;44.768;17.206;2023-07-24T09:07:30;31.40;90.80
36352;DHT22;22382;44.768;17.206;2023-07-24T09:09:58;31.70;91.00
36352;DHT22;22382;44.768;17.206;2023-07-24T09:12:25;31.60;90.00
36352;DHT22;22382;44.768;17.206;2023-07-24T09:15:02;31.70;91.00
36352;DHT22;22382;44.768;17.206;2023-07-24T09:17:29;31.80;90.60
36352;DHT22;22382;44.768;17.206;2023-07-24T09:19:57;32.10;90.40
36352;DHT22;22382;44.768;17.206;2023-07-24T09:22:24;32.30;89.60
36352;DHT22;22382;44.768;17.206;2023-07-24T09:24:54;32.40;88.80
36352;DHT22;22382;44.768;17.206;2023-07-24T09:27:25;32.50;87.10
36352;DHT22;22382;44.768;17.206;2023-07-24T09:29:53;32.40;88.40
36352;DHT22;22382;44.768;17.206;2023-07-24T09:32:23;32.30;90.10
36352;DHT22;22382;44.768;17.206;2023-07-24T09:34:51;32.20;90.10
36352;DHT22;22382;44.768;17.206;2023-07-24T09:37:24;32.00;90.90
36352;DHT22;22382;44.768;17.206;2023-07-24T09:39:52;32.00;89.90
36352;DHT22;22382;44.768;17.206;2023-07-24T09:42:29;32.00;89.30
36352;DHT22;22382;44.768;17.206;2023-07-24T09:44:57;32.10;88.60
36352;DHT22;22382;44.768;17.206;2023-07-24T09:47:24;32.40;88.80
36352;DHT22;22382;44.768;17.206;2023-07-24T09:50:12;32.70;86.70
36352;DHT22;22382;44.768;17.206;2023-07-24T09:52:40;32.80;83.80
36352;DHT22;22382;44.768;17.206;2023-07-24T09:55:13;33.00;84.60
36352;DHT22;22382;44.768;17.206;2023-07-24T09:57:43;33.20;82.40
36352;DHT22;22382;44.768;17.206;2023-07-24T10:00:11;33.10;83.80
36352;DHT22;22382;44.768;17.206;2023-07-24T10:02:38;33.10;81.10
36352;DHT22;22382;44.768;17.206;2023-07-24T10:05:06;33.20;77.10
36352;DHT22;22382;44.768;17.206;2023-07-24T10:07:34;33.50;75.10
36352;DHT22;22382;44.768;17.206;2023-07-24T10:10:01;33.80;76.60
36352;DHT22;22382;44.768;17.206;2023-07-24T10:12:29;34.10;75.20
36352;DHT22;22382;44.768;17.206;2023-07-24T10:14:57;34.40;72.80
36352;DHT22;22382;44.768;17.206;2023-07-24T10:17:34;34.80;69.50
36352;DHT22;22382;44.768;17.206;2023-07-24T10:20:06;35.20;70.80
36352;DHT22;22382;44.768;17.206;2023-07-24T10:22:33;35.80;66.80
36352;DHT22;22382;44.768;17.206;2023-07-24T10:25:00;36.00;65.50
36352;DHT22;22382;44.768;17.206;2023-07-24T10:27:28;36.00;66.20
36352;DHT22;22382;44.768;17.206;2023-07-24T10:29:58;36.00;64.50
36352;DHT22;22382;44.768;17.206;2023-07-24T10:32:25;36.00;63.90
36352;DHT22;22382;44.768;17.206;2023-07-24T10:34:59;35.90;65.80
36352;DHT22;22382;44.768;17.206;2023-07-24T10:37:34;35.90;62.70
36352;DHT22;22382;44.768;17.206;2023-07-24T10:40:02;36.10;61.50
36352;DHT22;22382;44.768;17.206;2023-07-24T10:42:30;36.20;61.70
36352;DHT22;22382;44.768;17.206;2023-07-24T10:45:06;36.80;61.00
36352;DHT22;22382;44.768;17.206;2023-07-24T10:47:34;36.50;61.80
36352;DHT22;22382;44.768;17.206;2023-07-24T10:50:02;36.40;60.10
36352;DHT22;22382;44.768;17.206;2023-07-24T10:52:30;36.40;58.70
36352;DHT22;22382;44.768;17.206;2023-07-24T10:55:06;36.30;60.90
36352;DHT22;22382;44.768;17.206;2023-07-24T10:57:33;36.20;59.50
36352;DHT22;22382;44.768;17.206;2023-07-24T11:00:00;36.40;60.40
36352;DHT22;22382;44.768;17.206;2023-07-24T11:02:28;36.50;60.20
36352;DHT22;22382;44.768;17.206;2023-07-24T11:04:58;36.70;59.30
36352;DHT22;22382;44.768;17.206;2023-07-24T11:07:25;36.70;58.80
36352;DHT22;22382;44.768;17.206;2023-07-24T11:09:52;36.90;60.20
36352;DHT22;22382;44.768;17.206;2023-07-24T11:12:20;36.50;59.70
36352;DHT22;22382;44.768;17.206;2023-07-24T11:14:49;36.10;60.40
36352;DHT22;22382;44.768;17.206;2023-07-24T11:17:17;35.80;60.70
36352;DHT22;22382;44.768;17.206;2023-07-24T11:19:44;35.80;62.50
36352;DHT22;22382;44.768;17.206;2023-07-24T11:22:12;35.60;62.40
36352;DHT22;22382;44.768;17.206;2023-07-24T11:24:48;35.60;61.70
36352;DHT22;22382;44.768;17.206;2023-07-24T11:27:16;35.50;64.00
36352;DHT22;22382;44.768;17.206;2023-07-24T11:29:49;35.60;63.60
36352;DHT22;22382;44.768;17.206;2023-07-24T11:32:17;35.80;63.60
36352;DHT22;22382;44.768;17.206;2023-07-24T11:34:44;35.80;60.10
36352;DHT22;22382;44.768;17.206;2023-07-24T11:37:11;35.80;60.40
36352;DHT22;22382;44.768;17.206;2023-07-24T11:39:38;35.60;61.20
36352;DHT22;22382;44.768;17.206;2023-07-24T11:42:06;35.60;61.70
36352;DHT22;22382;44.768;17.206;2023-07-24T11:44:33;35.80;65.40
36352;DHT22;22382;44.768;17.206;2023-07-24T11:47:04;36.10;67.90
36352;DHT22;22382;44.768;17.206;2023-07-24T11:49:32;36.10;69.30
36352;DHT22;22382;44.768;17.206;2023-07-24T11:52:00;35.90;71.00
36352;DHT22;22382;44.768;17.206;2023-07-24T11:54:27;35.80;69.50
36352;DHT22;22382;44.768;17.206;2023-07-24T11:56:54;36.10;67.80
36352;DHT22;22382;44.768;17.206;2023-07-24T11:59:21;36.10;66.90
36352;DHT22;22382;44.768;17.206;2023-07-24T12:01:48;36.10;65.40
36352;DHT22;22382;44.768;17.206;2023-07-24T12:04:16;36.40;64.40
36352;DHT22;22382;44.768;17.206;2023-07-24T12:06:43;36.60;63.50
36352;DHT22;22382;44.768;17.206;2023-07-24T12:09:11;36.40;59.30
36352;DHT22;22382;44.768;17.206;2023-07-24T12:11:39;36.50;58.80
36352;DHT22;22382;44.768;17.206;2023-07-24T12:14:07;36.60;60.20
36352;DHT22;22382;44.768;17.206;2023-07-24T12:16:35;36.70;56.40
36352;DHT22;22382;44.768;17.206;2023-07-24T12:19:02;36.90;58.30
36352;DHT22;22382;44.768;17.206;2023-07-24T12:21:29;37.10;59.20
36352;DHT22;22382;44.768;17.206;2023-07-24T12:23:56;37.00;59.70
36352;DHT22;22382;44.768;17.206;2023-07-24T12:26:23;37.10;61.00
36352;DHT22;22382;44.768;17.206;2023-07-24T12:28:52;37.00;65.40
36352;DHT22;22382;44.768;17.206;2023-07-24T12:31:19;36.80;63.30
36352;DHT22;22382;44.768;17.206;2023-07-24T12:33:46;36.60;62.30
36352;DHT22;22382;44.768;17.206;2023-07-24T12:36:13;36.50;65.80
36352;DHT22;22382;44.768;17.206;2023-07-24T12:38:40;36.50;67.80
36352;DHT22;22382;44.768;17.206;2023-07-24T12:41:07;36.80;66.70
36352;DHT22;22382;44.768;17.206;2023-07-24T12:43:34;37.10;68.10
36352;DHT22;22382;44.768;17.206;2023-07-24T12:46:01;37.30;70.20
36352;DHT22;22382;44.768;17.206;2023-07-24T12:48:28;37.20;69.60
36352;DHT22;22382;44.768;17.206;2023-07-24T12:50:58;37.00;69.30
36352;DHT22;22382;44.768;17.206;2023-07-24T12:53:26;36.80;65.50
36352;DHT22;22382;44.768;17.206;2023-07-24T12:56:05;36.20;61.10
36352;DHT22;22382;44.768;17.206;2023-07-24T12:58:32;35.90;62.10
36352;DHT22;22382;44.768;17.206;2023-07-24T13:00:59;36.00;61.50
36352;DHT22;22382;44.768;17.206;2023-07-24T13:03:26;35.80;59.30
36352;DHT22;22382;44.768;17.206;2023-07-24T13:05:53;35.70;60.20
36352;DHT22;22382;44.768;17.206;2023-07-24T13:08:20;35.60;56.20
36352;DHT22;22382;44.768;17.206;2023-07-24T13:10:49;35.90;57.30
36352;DHT22;22382;44.768;17.206;2023-07-24T13:13:16;35.90;56.70
36352;DHT22;22382;44.768;17.206;2023-07-24T13:15:43;35.90;57.00
36352;DHT22;22382;44.768;17.206;2023-07-24T13:18:10;36.00;59.00
36352;DHT22;22382;44.768;17.206;2023-07-24T13:20:43;36.00;58.60
36352;DHT22;22382;44.768;17.206;2023-07-24T13:23:10;36.00;57.20
36352;DHT22;22382;44.768;17.206;2023-07-24T13:25:37;36.20;55.60
36352;DHT22;22382;44.768;17.206;2023-07-24T13:28:04;36.30;57.90
36352;DHT22;22382;44.768;17.206;2023-07-24T13:30:31;36.50;57.80
36352;DHT22;22382;44.768;17.206;2023-07-24T13:32:58;36.50;58.60
36352;DHT22;22382;44.768;17.206;2023-07-24T13:35:25;36.50;57.00
36352;DHT22;22382;44.768;17.206;2023-07-24T13:37:52;36.40;59.50
36352;DHT22;22382;44.768;17.206;2023-07-24T13:40:19;36.40;56.30
36352;DHT22;22382;44.768;17.206;2023-07-24T13:42:46;36.40;56.90
36352;DHT22;22382;44.768;17.206;2023-07-24T13:45:13;36.40;58.30
36352;DHT22;22382;44.768;17.206;2023-07-24T13:47:40;36.30;56.00
36352;DHT22;22382;44.768;17.206;2023-07-24T13:50:08;36.50;57.70
36352;DHT22;22382;44.768;17.206;2023-07-24T13:52:35;36.60;56.00
36352;DHT22;22382;44.768;17.206;2023-07-24T13:55:03;36.60;57.20
36352;DHT22;22382;44.768;17.206;2023-07-24T13:57:30;36.40;59.00
36352;DHT22;22382;44.768;17.206;2023-07-24T13:59:57;36.40;57.50
36352;DHT22;22382;44.768;17.206;2023-07-24T14:02:24;36.60;58.30
36352;DHT22;22382;44.768;17.206;2023-07-24T14:04:51;36.50;54.30
36352;DHT22;22382;44.768;17.206;2023-07-24T14:07:20;36.50;56.40
36352;DHT22;22382;44.768;17.206;2023-07-24T14:09:47;36.60;56.70
36352;DHT22;22382;44.768;17.206;2023-07-24T14:12:14;36.50;57.70
36352;DHT22;22382;44.768;17.206;2023-07-24T14:14:41;36.60;57.60
36352;DHT22;22382;44.768;17.206;2023-07-24T14:17:08;36.50;56.20
36352;DHT22;22382;44.768;17.206;2023-07-24T14:19:35;36.50;58.40
36352;DHT22;22382;44.768;17.206;2023-07-24T14:22:02;36.60;59.10
36352;DHT22;22382;44.768;17.206;2023-07-24T14:24:29;36.60;59.20
36352;DHT22;22382;44.768;17.206;2023-07-24T14:26:56;36.50;59.20
36352;DHT22;22382;44.768;17.206;2023-07-24T14:29:23;36.40;58.20
36352;DHT22;22382;44.768;17.206;2023-07-24T14:31:50;36.30;58.30
36352;DHT22;22382;44.768;17.206;2023-07-24T14:34:17;36.30;58.40
36352;DHT22;22382;44.768;17.206;2023-07-24T14:36:44;36.20;58.20
36352;DHT22;22382;44.768;17.206;2023-07-24T14:39:11;36.30;58.30
36352;DHT22;22382;44.768;17.206;2023-07-24T14:41:38;36.30;58.70
36352;DHT22;22382;44.768;17.206;2023-07-24T14:44:06;36.10;57.50
36352;DHT22;22382;44.768;17.206;2023-07-24T14:46:33;36.20;56.90
36352;DHT22;22382;44.768;17.206;2023-07-24T14:49:00;36.30;56.40
36352;DHT22;22382;44.768;17.206;2023-07-24T14:51:27;36.60;57.30
36352;DHT22;22382;44.768;17.206;2023-07-24T14:53:55;36.70;56.90
36352;DHT22;22382;44.768;17.206;2023-07-24T14:56:22;36.80;56.60
36352;DHT22;22382;44.768;17.206;2023-07-24T14:58:49;37.00;56.90
36352;DHT22;22382;44.768;17.206;2023-07-24T15:01:16;37.60;58.80
36352;DHT22;22382;44.768;17.206;2023-07-24T15:03:43;38.90;57.60
36352;DHT22;22382;44.768;17.206;2023-07-24T15:06:10;40.60;55.00
36352;DHT22;22382;44.768;17.206;2023-07-24T15:08:37;41.40;53.00
36352;DHT22;22382;44.768;17.206;2023-07-24T15:11:04;42.00;53.70
36352;DHT22;22382;44.768;17.206;2023-07-24T15:13:31;42.20;53.60
36352;DHT22;22382;44.768;17.206;2023-07-24T15:15:58;42.60;53.70
36352;DHT22;22382;44.768;17.206;2023-07-24T15:18:26;43.00;52.80
36352;DHT22;22382;44.768;17.206;2023-07-24T15:20:53;43.20;52.30
36352;DHT22;22382;44.768;17.206;2023-07-24T15:23:20;43.20;53.00
36352;DHT22;22382;44.768;17.206;2023-07-24T15:25:47;43.50;52.80
36352;DHT22;22382;44.768;17.206;2023-07-24T15:28:14;42.90;53.70